Time;durP1;ratioP1;P1;durP2;ratioP2;P2;SDS_P1;SDS_P2;PMS_P1;PMS_P2;Temp;Humidity;BMP_temperature;BMP_pressure;BME280_temperature;BME280_humidity;BME280_pressure;Samples;Min_cycle;Max_cycle;Signal;HPM_P1;HPM_P2
2021/01/23 00:00:39;;;;;;;26.30;16.27;;;;;;;6.66;78.11;94589.81;5094437;28;20447;-80
2021/01/23 00:03:06;;;;;;;40.93;21.77;;;;;;;6.58;78.31;94615.63;5094727;28;20448;-80
2021/01/23 00:05:32;;;;;;;30.03;18.33;;;;;;;6.62;78.73;94611.00;5094603;28;20483;-79
2021/01/23 00:08:01;;;;;;;9.20;7.50;;;;;;;6.58;78.21;94579.13;5075212;28;20444;-80
2021/01/23 00:10:29;;;;;;;21.23;10.00;;;;;;;6.70;78.45;94593.03;5094316;28;20510;-79
2021/01/23 00:12:56;;;;;;;18.17;11.03;;;;;;;6.66;78.46;94599.44;5094070;28;20940;-80
2021/01/23 00:15:22;;;;;;;22.00;11.87;;;;;;;6.62;78.33;94590.16;5094054;28;20915;-79
2021/01/23 00:17:49;;;;;;;26.83;12.80;;;;;;;6.60;78.67;94598.09;5094243;28;20447;-79
2021/01/23 00:20:16;;;;;;;18.13;11.10;;;;;;;6.59;78.73;94601.63;5094122;28;20443;-80
2021/01/23 00:22:42;;;;;;;110.50;35.43;;;;;;;6.55;78.39;94601.97;5093808;28;20545;-80
2021/01/23 00:25:09;;;;;;;91.00;32.63;;;;;;;6.48;78.68;94588.56;5093941;28;20482;-80
2021/01/23 00:27:39;;;;;;;32.30;16.77;;;;;;;6.45;79.11;94594.84;5093838;28;20439;-80
2021/01/23 00:30:07;;;;;;;45.93;20.70;;;;;;;6.46;78.91;94598.28;5093997;28;20504;-80
2021/01/23 00:32:33;;;;;;;25.60;12.87;;;;;;;6.48;79.15;94606.81;5075296;28;20938;-80
2021/01/23 00:35:00;;;;;;;17.87;10.07;;;;;;;6.41;79.69;94616.03;5093744;28;20462;-80
2021/01/23 00:37:26;;;;;;;11.87;9.40;;;;;;;6.33;79.59;94610.53;5094196;28;20814;-80
2021/01/23 00:39:52;;;;;;;13.90;9.50;;;;;;;6.30;79.64;94606.38;5093621;28;20443;-80
2021/01/23 00:42:19;;;;;;;12.77;9.80;;;;;;;6.26;80.21;94599.72;5057885;28;20443;-81
2021/01/23 00:44:46;;;;;;;14.87;9.30;;;;;;;6.31;79.73;94597.59;5093459;28;20435;-80
2021/01/23 00:47:12;;;;;;;20.67;11.60;;;;;;;6.34;80.19;94606.97;5093652;28;20447;-78
2021/01/23 00:49:39;;;;;;;15.73;9.63;;;;;;;6.39;79.78;94628.34;5093557;28;20576;-79
2021/01/23 00:52:05;;;;;;;12.70;8.43;;;;;;;6.49;79.82;94609.31;5093403;28;20442;-79
2021/01/23 00:54:31;;;;;;;14.73;9.97;;;;;;;6.45;78.81;94597.44;5093464;28;20443;-80
2021/01/23 00:56:57;;;;;;;17.77;9.60;;;;;;;6.53;79.66;94607.31;5093467;28;20443;-80
2021/01/23 00:59:24;;;;;;;14.97;10.97;;;;;;;6.59;78.67;94606.00;5093584;28;20509;-79
2021/01/23 01:01:51;;;;;;;20.57;13.83;;;;;;;6.66;78.42;94615.06;5093102;28;20443;-80
2021/01/23 01:04:18;;;;;;;24.10;12.43;;;;;;;6.69;78.55;94617.44;5093603;28;20439;-80
2021/01/23 01:06:44;;;;;;;12.50;9.63;;;;;;;6.78;77.62;94601.94;5093802;28;20514;-80
2021/01/23 01:09:10;;;;;;;16.90;11.43;;;;;;;6.76;77.32;94605.59;5057716;28;20443;-79
2021/01/23 01:11:37;;;;;;;26.60;12.43;;;;;;;6.84;77.58;94596.25;5093559;28;20782;-80
2021/01/23 01:14:03;;;;;;;23.83;12.30;;;;;;;6.93;77.13;94599.13;5093495;28;20580;-80
2021/01/23 01:16:30;;;;;;;21.77;11.80;;;;;;;6.92;76.92;94606.09;5093367;28;20459;-80
2021/01/23 01:18:57;;;;;;;20.60;12.80;;;;;;;6.92;76.75;94590.47;5093182;28;20450;-80
2021/01/23 01:21:23;;;;;;;22.40;16.20;;;;;;;6.87;77.15;94599.59;5093001;28;20801;-80
2021/01/23 01:23:50;;;;;;;25.47;15.60;;;;;;;6.84;76.69;94580.63;5092810;28;20468;-79
2021/01/23 01:26:16;;;;;;;20.57;14.17;;;;;;;6.82;76.96;94577.28;5092863;28;20471;-79
2021/01/23 01:28:42;;;;;;;21.47;14.70;;;;;;;6.82;77.56;94582.50;5092922;28;20923;-78
2021/01/23 01:31:09;;;;;;;22.63;13.60;;;;;;;6.78;77.82;94565.44;5093108;28;20446;-80
2021/01/23 01:33:36;;;;;;;16.30;12.63;;;;;;;6.74;77.19;94566.63;5092987;28;20443;-79
2021/01/23 01:36:05;;;;;;;17.53;12.03;;;;;;;6.65;78.27;94569.91;5093102;28;20884;-81
2021/01/23 01:38:31;;;;;;;22.17;13.40;;;;;;;6.73;77.21;94564.94;5092579;28;20951;-79
2021/01/23 01:40:57;;;;;;;21.70;11.87;;;;;;;6.69;76.75;94558.31;5093320;28;20452;-80
2021/01/23 01:43:24;;;;;;;20.13;12.17;;;;;;;6.66;77.38;94574.19;5098353;28;20447;-81
2021/01/23 01:45:50;;;;;;;17.10;11.17;;;;;;;6.62;77.25;94575.34;5105244;28;20475;-80
2021/01/23 01:48:16;;;;;;;19.93;12.10;;;;;;;6.52;77.32;94556.13;5094691;28;20448;-80
2021/01/23 01:50:43;;;;;;;15.70;9.70;;;;;;;6.54;78.45;94551.63;5093064;28;20444;-80
2021/01/23 01:53:11;;;;;;;16.53;10.83;;;;;;;6.56;77.36;94557.53;5093280;28;20439;-80
2021/01/23 01:55:37;;;;;;;19.40;9.70;;;;;;;6.60;77.54;94560.75;5092981;28;20450;-80
2021/01/23 01:58:04;;;;;;;14.77;11.20;;;;;;;6.63;77.92;94563.97;5093156;28;20916;-80
2021/01/23 02:00:31;;;;;;;17.83;11.40;;;;;;;6.63;77.39;94560.53;5094400;28;20451;-80
2021/01/23 02:03:42;;;;;;;19.47;12.00;;;;;;;6.66;77.75;94563.75;5096850;28;20546;-79
2021/01/23 02:06:21;;;;;;;15.90;11.10;;;;;;;6.69;76.98;94570.53;5053804;28;20493;-79
2021/01/23 02:09:00;;;;;;;19.97;12.73;;;;;;;6.62;77.58;94557.09;5053978;28;20444;-78
2021/01/23 02:11:32;;;;;;;16.77;10.17;;;;;;;6.34;78.20;94552.25;5053980;28;20484;-79
2021/01/23 02:14:10;;;;;;;19.00;10.23;;;;;;;6.20;78.64;94548.06;5053858;28;20437;-79
2021/01/23 02:16:42;;;;;;;14.70;9.33;;;;;;;6.25;78.94;94545.97;5053946;28;20968;-80
2021/01/23 02:19:17;;;;;;;19.97;11.70;;;;;;;6.29;77.74;94536.97;5053728;28;20540;-79
2021/01/23 02:22:12;;;;;;;15.87;10.90;;;;;;;6.06;79.24;94536.03;5053359;28;20448;-79
2021/01/23 02:24:40;;;;;;;21.03;12.57;;;;;;;5.85;81.19;94542.78;5053572;28;20504;-79
2021/01/23 02:27:45;;;;;;;21.07;12.13;;;;;;;5.93;80.87;94542.25;5053791;28;20452;-80
2021/01/23 02:30:18;;;;;;;20.40;14.10;;;;;;;6.00;80.00;94536.50;4994107;28;21086;-79
2021/01/23 02:32:47;;;;;;;17.30;11.20;;;;;;;6.00;81.23;94518.25;4994166;28;20939;-80
2021/01/23 02:35:16;;;;;;;23.10;10.90;;;;;;;6.08;79.72;94539.41;4961837;28;21044;-80
2021/01/23 02:37:43;;;;;;;26.57;12.07;;;;;;;5.98;81.16;94522.75;4993996;28;20963;-80
2021/01/23 02:40:11;;;;;;;20.90;13.23;;;;;;;5.90;82.25;94522.50;4994285;28;20447;-79
2021/01/23 02:42:38;;;;;;;22.40;14.67;;;;;;;5.65;82.24;94486.13;5018079;28;20445;-80
2021/01/23 02:45:06;;;;;;;24.77;12.07;;;;;;;5.53;84.08;94490.44;5053402;28;20485;-78
2021/01/23 02:47:32;;;;;;;19.50;12.83;;;;;;;5.67;83.38;94500.69;5003517;28;20445;-79
2021/01/23 02:50:00;;;;;;;16.97;10.50;;;;;;;5.76;83.02;94512.19;5053190;28;20508;-80
2021/01/23 02:52:37;;;;;;;19.27;11.60;;;;;;;5.86;82.69;94519.25;5053271;28;20437;-80
2021/01/23 02:55:06;;;;;;;16.43;12.43;;;;;;;5.99;82.25;94514.00;5053178;28;20449;-79
2021/01/23 02:57:34;;;;;;;19.27;10.30;;;;;;;6.01;82.05;94504.28;5052945;28;20477;-80
2021/01/23 03:00:06;;;;;;;18.50;12.17;;;;;;;6.09;80.94;94520.22;5052907;28;20441;-78
2021/01/23 03:02:35;;;;;;;14.27;10.43;;;;;;;6.10;80.90;94523.66;5053255;28;20442;-80
2021/01/23 03:05:03;;;;;;;27.97;13.87;;;;;;;5.95;81.78;94512.56;5052895;28;20488;-79
2021/01/23 03:07:29;;;;;;;21.33;11.60;;;;;;;5.93;81.57;94493.63;5088403;28;20456;-78
2021/01/23 03:09:56;;;;;;;27.20;12.30;;;;;;;5.98;82.56;94495.88;5095428;28;20454;-79
2021/01/23 03:12:22;;;;;;;27.23;14.50;;;;;;;6.08;81.00;94502.09;5094964;28;20455;-80
2021/01/23 03:14:48;;;;;;;23.30;11.57;;;;;;;6.15;81.28;94504.13;5076238;28;20444;-80
2021/01/23 03:17:15;;;;;;;36.40;18.53;;;;;;;6.07;80.88;94495.19;5095532;28;20451;-80
2021/01/23 03:19:41;;;;;;;30.17;14.27;;;;;;;6.04;80.57;94488.44;5095193;28;20816;-78
2021/01/23 03:22:08;;;;;;;22.20;11.17;;;;;;;6.04;80.94;94493.66;5094831;28;20475;-79
2021/01/23 03:24:35;;;;;;;20.30;11.00;;;;;;;5.99;81.90;94487.94;5095156;28;20443;-79
2021/01/23 03:27:01;;;;;;;21.07;12.30;;;;;;;5.65;83.37;94488.72;5095195;28;20479;-79
2021/01/23 03:29:27;;;;;;;25.10;11.30;;;;;;;5.78;83.36;94477.31;5095262;28;20450;-79
2021/01/23 03:31:54;;;;;;;22.03;11.03;;;;;;;5.86;82.95;94488.00;5094984;28;20448;-79
2021/01/23 03:34:20;;;;;;;17.40;10.00;;;;;;;5.99;82.01;94476.72;5095079;28;20440;-79
2021/01/23 03:36:46;;;;;;;8.50;6.80;;;;;;;6.15;81.70;94480.69;5094759;28;20447;-78
2021/01/23 03:39:14;;;;;;;23.13;13.63;;;;;;;6.19;81.08;94484.72;5094944;28;20614;-80
2021/01/23 03:41:40;;;;;;;18.67;10.93;;;;;;;6.24;80.95;94486.97;5094713;28;20919;-79
2021/01/23 03:44:07;;;;;;;12.33;8.33;;;;;;;6.27;80.41;94476.31;5095038;28;20447;-79
2021/01/23 03:46:33;;;;;;;12.47;8.13;;;;;;;6.38;80.74;94480.75;5094663;28;20486;-80
2021/01/23 03:48:59;;;;;;;17.17;8.40;;;;;;;6.49;81.16;94470.34;5094694;28;20458;-79
2021/01/23 03:51:26;;;;;;;14.53;9.30;;;;;;;6.60;79.65;94483.38;5094608;28;21006;-80
2021/01/23 03:53:52;;;;;;;20.90;10.43;;;;;;;6.72;79.16;94485.06;5094482;28;20807;-79
2021/01/23 03:56:19;;;;;;;31.17;15.20;;;;;;;6.77;78.66;94469.91;5094852;28;20439;-80
2021/01/23 03:58:46;;;;;;;30.63;16.30;;;;;;;6.74;79.01;94464.09;5094270;28;20443;-79
2021/01/23 04:01:12;;;;;;;27.00;16.40;;;;;;;6.70;78.98;94465.28;5094890;28;20455;-80
2021/01/23 04:03:39;;;;;;;16.57;10.50;;;;;;;6.67;79.97;94470.72;5094230;28;20443;-79
2021/01/23 04:06:05;;;;;;;14.93;7.47;;;;;;;6.74;79.76;94467.53;5094144;28;20531;-80
2021/01/23 04:08:31;;;;;;;9.97;7.23;;;;;;;6.84;79.60;94468.47;5094540;28;20447;-81
2021/01/23 04:10:58;;;;;;;7.03;4.90;;;;;;;6.95;78.96;94480.72;5094460;28;20992;-79
2021/01/23 04:13:25;;;;;;;6.07;5.07;;;;;;;7.02;78.84;94483.66;5094191;28;20443;-78
2021/01/23 04:15:52;;;;;;;8.20;6.30;;;;;;;7.11;78.59;94477.72;5093404;28;20436;-79
2021/01/23 04:18:19;;;;;;;5.87;5.27;;;;;;;7.22;78.00;94480.31;5094180;28;20283;-80
2021/01/23 04:20:45;;;;;;;8.63;6.10;;;;;;;7.28;77.42;94484.25;5094005;28;20448;-79
2021/01/23 04:23:12;;;;;;;13.60;5.93;;;;;;;7.31;77.71;94491.84;5093178;28;20834;-80
2021/01/23 04:25:38;;;;;;;9.70;5.33;;;;;;;7.32;77.34;94486.50;5093289;28;21036;-80
2021/01/23 04:28:04;;;;;;;7.83;6.30;;;;;;;7.40;76.82;94491.94;5094050;28;20440;-80
2021/01/23 04:30:32;;;;;;;6.67;5.70;;;;;;;7.45;76.99;94492.41;5075046;28;20444;-79
2021/01/23 04:32:58;;;;;;;12.37;9.00;;;;;;;7.42;76.20;94492.63;5094087;28;20440;-79
2021/01/23 04:35:24;;;;;;;11.10;9.07;;;;;;;7.35;76.49;94490.63;5093749;28;20451;-80
2021/01/23 04:37:51;;;;;;;14.17;9.03;;;;;;;7.36;76.52;94482.69;5093950;28;20758;-79
2021/01/23 04:40:17;;;;;;;10.10;8.00;;;;;;;7.38;76.58;94488.63;5094078;28;20449;-79
2021/01/23 04:42:44;;;;;;;12.30;8.40;;;;;;;7.44;76.34;94479.47;5094255;28;20446;-80
2021/01/23 04:45:12;;;;;;;11.03;7.67;;;;;;;7.50;76.06;94480.75;5093823;28;20444;-80
2021/01/23 04:47:40;;;;;;;8.20;6.80;;;;;;;7.53;76.27;94485.75;5063604;28;20501;-81
2021/01/23 04:50:08;;;;;;;9.37;7.43;;;;;;;7.56;75.74;94482.91;5107277;28;20966;-80
2021/01/23 04:52:36;;;;;;;11.40;8.87;;;;;;;7.56;75.56;94480.28;5094735;28;20459;-80
2021/01/23 04:55:03;;;;;;;21.73;18.27;;;;;;;7.40;75.70;94470.22;5093797;28;20456;-80
2021/01/23 04:57:29;;;;;;;21.13;13.20;;;;;;;7.42;75.79;94490.03;5058339;28;20447;-79
2021/01/23 04:59:56;;;;;;;23.07;14.57;;;;;;;7.46;76.07;94477.56;5041020;28;20807;-80
2021/01/23 05:02:23;;;;;;;27.67;19.70;;;;;;;7.50;76.02;94478.16;5092620;28;20781;-80
2021/01/23 05:04:54;;;;;;;25.80;14.17;;;;;;;7.52;75.57;94476.25;5093212;28;20202;-80
2021/01/23 05:07:28;;;;;;;22.90;15.07;;;;;;;7.50;76.16;94468.53;5093442;28;20449;-81
2021/01/23 05:09:54;;;;;;;23.13;14.70;;;;;;;7.49;76.08;94468.66;5093477;28;20443;-80
2021/01/23 05:12:38;;;;;;;20.73;13.50;;;;;;;7.42;75.67;94457.88;5093155;28;20562;-80
2021/01/23 05:15:08;;;;;;;31.37;17.67;;;;;;;7.32;75.79;94456.97;5093148;28;20500;-79
2021/01/23 05:17:52;;;;;;;23.90;16.10;;;;;;;7.29;76.40;94454.59;5092934;28;20444;-77
2021/01/23 05:20:37;;;;;;;25.90;14.70;;;;;;;7.26;76.30;94454.84;5074487;28;20443;-81
2021/01/23 05:23:09;;;;;;;19.70;14.10;;;;;;;7.23;76.48;94439.41;5093441;28;20479;-80
2021/01/23 05:25:37;;;;;;;16.77;13.00;;;;;;;7.17;76.48;94451.16;5093107;28;20517;-79
2021/01/23 05:28:04;;;;;;;20.37;13.57;;;;;;;7.15;77.34;94445.22;5092991;28;20440;-81
2021/01/23 05:30:43;;;;;;;25.30;14.77;;;;;;;7.15;76.43;94442.63;5093399;28;20505;-86
2021/01/23 05:33:12;;;;;;;36.77;21.70;;;;;;;7.05;77.15;94439.91;5093021;28;20454;-79
2021/01/23 05:35:39;;;;;;;71.43;32.47;;;;;;;7.05;77.39;94436.47;5092710;28;20444;-79
2021/01/23 05:38:22;;;;;;;51.23;25.93;;;;;;;6.92;78.42;94431.38;5092775;28;20441;-79
2021/01/23 05:40:52;;;;;;;63.10;29.27;;;;;;;6.99;77.79;94439.56;5050283;28;20995;-80
2021/01/23 05:43:34;;;;;;;30.33;15.73;;;;;;;8.07;86.95;94434.25;5050097;28;20827;-80
2021/01/23 05:46:04;;;;;;;42.47;25.63;;;;;;;6.93;79.03;94426.97;4990753;28;20487;-81
2021/01/23 05:48:30;;;;;;;34.73;20.83;;;;;;;6.93;79.97;94426.97;4991009;28;20467;-79
2021/01/23 05:50:58;;;;;;;42.70;24.37;;;;;;;6.75;79.78;94424.03;4991055;28;20448;-81
2021/01/23 05:53:24;;;;;;;40.40;21.10;;;;;;;6.84;79.38;94411.09;4990922;28;20460;-80
2021/01/23 05:55:51;;;;;;;42.67;23.20;;;;;;;6.78;79.08;94401.16;4991175;28;20463;-81
2021/01/23 05:58:17;;;;;;;29.53;20.00;;;;;;;6.85;78.69;94404.13;4990625;28;20944;-80
2021/01/23 06:00:44;;;;;;;33.10;21.43;;;;;;;6.90;78.96;94407.19;4991078;28;20523;-80
2021/01/23 06:03:11;;;;;;;28.03;20.37;;;;;;;6.98;77.93;94414.44;4990899;28;20451;-81
2021/01/23 06:05:38;;;;;;;35.30;19.97;;;;;;;7.00;78.10;94407.31;4990809;28;20484;-80
2021/01/23 06:08:05;;;;;;;28.30;19.47;;;;;;;7.03;77.48;94400.06;4990942;28;20514;-80
2021/01/23 06:10:36;;;;;;;27.20;17.63;;;;;;;6.86;78.87;94384.91;4958390;28;20480;-79
2021/01/23 06:13:03;;;;;;;26.73;17.93;;;;;;;6.95;78.03;94393.81;4990773;28;20498;-80
2021/01/23 06:15:37;;;;;;;26.93;19.37;;;;;;;7.00;78.25;94391.66;4991032;28;20447;-80
2021/01/23 06:18:06;;;;;;;29.73;20.03;;;;;;;7.01;77.48;94399.38;5011299;28;20534;-80
2021/01/23 06:20:52;;;;;;;37.40;21.07;;;;;;;6.90;78.68;94401.97;5030095;28;20585;-81
2021/01/23 06:23:21;;;;;;;53.87;35.23;;;;;;;6.74;78.79;94397.13;5063665;28;20843;-80
2021/01/23 06:26:01;;;;;;;49.03;29.80;;;;;;;6.74;79.14;94404.13;5073663;28;20489;-80
2021/01/23 06:29:04;;;;;;;44.93;28.43;;;;;;;6.52;79.86;94389.31;5056752;28;20440;-81
2021/01/23 06:31:35;;;;;;;44.87;27.27;;;;;;;6.29;81.83;94391.06;5092582;28;20466;-81
2021/01/23 06:34:23;;;;;;;59.83;29.70;;;;;;;6.27;82.34;94379.09;5092416;28;20439;-80
2021/01/23 06:36:49;;;;;;;66.03;35.50;;;;;;;6.34;82.21;94401.97;5092440;28;20452;-81
2021/01/23 06:39:17;;;;;;;42.43;22.73;;;;;;;6.09;81.77;94371.75;5092175;28;20987;-80
2021/01/23 06:41:43;;;;;;;38.57;22.20;;;;;;;6.21;82.03;94375.19;5092342;28;20942;-80
2021/01/23 06:44:15;;;;;;;31.43;19.70;;;;;;;6.21;82.28;94390.81;5092642;28;20517;-81
2021/01/23 06:46:43;;;;;;;37.10;21.10;;;;;;;6.31;82.77;94386.56;5073270;28;20483;-81
2021/01/23 06:49:11;;;;;;;37.13;22.20;;;;;;;6.37;82.46;94388.72;5096331;28;20458;-81
2021/01/23 06:51:39;;;;;;;34.50;22.40;;;;;;;6.31;81.78;94383.94;5095807;28;20448;-81
2021/01/23 06:54:16;;;;;;;46.77;30.70;;;;;;;6.40;82.20;94404.13;5096051;28;20767;-81
2021/01/23 06:56:44;;;;;;;83.50;44.33;;;;;;;6.44;82.17;94402.09;5095665;28;20450;-81
2021/01/23 06:59:23;;;;;;;69.70;38.60;;;;;;;6.17;83.27;94405.03;5095690;28;20444;-81
2021/01/23 07:01:58;;;;;;;61.23;36.20;;;;;;;6.32;82.51;94416.06;5076433;28;20496;-81
2021/01/23 07:04:24;;;;;;;60.83;35.20;;;;;;;6.34;82.99;94403.72;5095398;28;20477;-81
2021/01/23 07:06:52;;;;;;;80.60;43.83;;;;;;;6.49;82.78;94406.00;5076221;28;20536;-81
2021/01/23 07:09:20;;;;;;;118.63;55.87;;;;;;;6.61;82.56;94409.44;5059930;28;20439;-81
2021/01/23 07:11:46;;;;;;;100.30;54.90;;;;;;;6.74;82.49;94410.16;5076547;28;20523;-81
2021/01/23 07:14:12;;;;;;;71.90;43.10;;;;;;;6.83;81.59;94395.59;5095272;28;20439;-82
2021/01/23 07:16:40;;;;;;;63.93;38.30;;;;;;;6.90;81.40;94415.00;5095534;28;20946;-82
2021/01/23 07:19:08;;;;;;;60.30;38.73;;;;;;;6.98;80.45;94407.44;5095291;28;20927;-81
2021/01/23 07:21:36;;;;;;;55.40;34.20;;;;;;;7.08;80.76;94402.31;5095206;28;20443;-82
2021/01/23 07:24:03;;;;;;;58.87;33.53;;;;;;;7.17;80.46;94401.56;5094883;28;20472;-81
2021/01/23 07:26:31;;;;;;;46.90;29.47;;;;;;;7.28;80.25;94398.97;5075882;28;20483;-80
2021/01/23 07:28:59;;;;;;;42.40;22.67;;;;;;;7.28;79.32;94387.69;5076266;28;20444;-81
2021/01/23 07:31:27;;;;;;;34.37;20.60;;;;;;;7.36;80.19;94396.56;5095223;28;20531;-80
2021/01/23 07:33:56;;;;;;;27.83;20.63;;;;;;;7.41;79.29;94397.00;5094760;28;20446;-81
2021/01/23 07:36:33;;;;;;;30.30;18.43;;;;;;;7.47;79.07;94382.63;5095122;28;20473;-80
2021/01/23 07:39:00;;;;;;;28.97;16.10;;;;;;;7.54;78.19;94388.22;5095044;28;20442;-80
2021/01/23 07:41:32;;;;;;;30.80;20.70;;;;;;;7.61;78.63;94389.38;5095240;28;20443;-81
2021/01/23 07:43:59;;;;;;;43.20;20.53;;;;;;;7.65;78.41;94389.00;5095033;28;20911;-82
2021/01/23 07:46:33;;;;;;;42.40;20.00;;;;;;;7.77;77.96;94392.38;5094660;28;20479;-81
2021/01/23 07:48:59;;;;;;;32.23;20.90;;;;;;;7.90;77.49;94374.75;5094974;28;20443;-80
2021/01/23 07:51:27;;;;;;;36.97;22.33;;;;;;;8.04;77.48;94378.81;5094058;28;20440;-81
2021/01/23 07:54:13;;;;;;;30.17;18.47;;;;;;;8.13;76.41;94377.25;5105670;28;20503;-80
2021/01/23 07:56:52;;;;;;;28.43;14.53;;;;;;;8.22;75.77;94363.41;5104374;28;20510;-81
2021/01/23 07:59:18;;;;;;;35.10;18.27;;;;;;;8.31;75.13;94365.22;5094484;28;20444;-80
2021/01/23 08:01:47;;;;;;;35.73;17.70;;;;;;;8.42;75.45;94375.66;5094539;28;20444;-81
2021/01/23 08:04:33;;;;;;;37.17;21.37;;;;;;;8.43;74.26;94366.84;5094528;28;20453;-82
2021/01/23 08:07:18;;;;;;;32.97;15.63;;;;;;;8.52;73.96;94376.53;5094322;28;20488;-81
2021/01/23 08:09:45;;;;;;;32.57;20.17;;;;;;;8.47;74.25;94375.28;5094537;28;20452;-81
2021/01/23 08:12:19;;;;;;;32.40;21.80;;;;;;;8.55;74.60;94376.25;5094263;28;20436;-81
2021/01/23 08:14:53;;;;;;;34.03;20.63;;;;;;;8.62;74.25;94373.94;5093881;28;20458;-81
2021/01/23 08:17:19;;;;;;;36.63;22.40;;;;;;;8.36;75.52;94363.09;5094061;28;20445;-79
2021/01/23 08:19:50;;;;;;;37.40;21.37;;;;;;;8.38;75.89;94389.94;5093966;28;20448;-82
2021/01/23 08:22:16;;;;;;;32.63;20.63;;;;;;;8.33;76.00;94381.63;5093862;28;20537;-81
2021/01/23 08:24:43;;;;;;;32.03;21.17;;;;;;;8.22;76.48;94386.94;5093846;28;20438;-81
2021/01/23 08:27:18;;;;;;;23.77;17.63;;;;;;;8.28;76.24;94400.31;5093641;28;20537;-81
2021/01/23 08:29:45;;;;;;;28.20;20.80;;;;;;;8.39;76.15;94389.00;5093984;28;20456;-80
2021/01/23 08:32:12;;;;;;;33.70;19.43;;;;;;;8.56;74.81;94383.16;5093817;28;20450;-81
2021/01/23 08:34:38;;;;;;;40.53;25.77;;;;;;;8.67;74.78;94393.53;5093711;28;20448;-81
2021/01/23 08:37:05;;;;;;;37.03;24.13;;;;;;;8.78;75.11;94390.00;5093754;28;20857;-81
2021/01/23 08:39:41;;;;;;;39.43;25.27;;;;;;;8.87;75.00;94391.81;5093683;28;20453;-81
2021/01/23 08:42:07;;;;;;;35.07;21.60;;;;;;;8.95;74.24;94378.88;5093574;28;20446;-81
2021/01/23 08:44:34;;;;;;;33.67;23.27;;;;;;;9.07;73.68;94397.13;5057928;28;20450;-80
2021/01/23 08:47:02;;;;;;;37.37;22.93;;;;;;;9.09;73.28;94380.31;5093642;28;20641;-81
2021/01/23 08:49:28;;;;;;;37.93;24.37;;;;;;;9.17;72.67;94377.03;5093263;28;20529;-80
2021/01/23 08:51:55;;;;;;;29.67;20.40;;;;;;;9.23;73.34;94389.56;5093389;28;20445;-81
2021/01/23 08:54:21;;;;;;;33.27;21.97;;;;;;;9.27;72.97;94360.41;5093387;28;20456;-82
2021/01/23 08:56:47;;;;;;;42.37;27.73;;;;;;;9.09;72.21;94356.78;5093236;28;20930;-81
2021/01/23 08:59:14;;;;;;;39.80;27.03;;;;;;;9.17;72.09;94366.56;5093833;28;20453;-81
2021/01/23 09:01:41;;;;;;;39.80;25.00;;;;;;;9.14;72.09;94354.56;5093332;28;20451;-81
2021/01/23 09:04:08;;;;;;;34.17;24.03;;;;;;;9.22;71.83;94359.97;5093699;28;20439;-80
2021/01/23 09:06:34;;;;;;;32.60;22.23;;;;;;;9.31;72.20;94367.03;5074144;28;20480;-81
2021/01/23 09:09:00;;;;;;;37.80;23.70;;;;;;;9.37;72.16;94373.50;5093762;28;20498;-82
2021/01/23 09:11:27;;;;;;;35.90;19.70;;;;;;;9.15;71.50;94368.50;5092743;28;20449;-81
2021/01/23 09:13:53;;;;;;;24.57;16.80;;;;;;;9.15;71.17;94355.41;5093336;28;20442;-80
2021/01/23 09:16:19;;;;;;;23.93;17.50;;;;;;;9.08;71.40;94376.06;5093485;28;20498;-81
2021/01/23 09:18:47;;;;;;;29.90;19.77;;;;;;;9.14;70.50;94365.03;5093103;28;20832;-81
2021/01/23 09:21:13;;;;;;;27.53;19.10;;;;;;;9.11;70.88;94360.09;5093176;28;20781;-81
2021/01/23 09:23:39;;;;;;;30.10;18.07;;;;;;;9.15;71.31;94352.78;5093354;28;20472;-82
2021/01/23 09:26:06;;;;;;;30.37;16.03;;;;;;;9.17;71.68;94349.06;5093247;28;20804;-81
2021/01/23 09:28:32;;;;;;;26.27;18.73;;;;;;;9.29;71.26;94342.78;5093015;28;20442;-81
2021/01/23 09:30:59;;;;;;;28.70;18.50;;;;;;;9.38;71.18;94353.38;5093003;28;20447;-81
2021/01/23 09:33:25;;;;;;;29.50;21.50;;;;;;;9.49;70.37;94346.22;5092833;28;20442;-81
2021/01/23 09:35:52;;;;;;;33.37;21.87;;;;;;;9.47;70.07;94328.97;5092950;28;20447;-81
2021/01/23 09:38:19;;;;;;;41.03;22.90;;;;;;;9.61;69.66;94342.50;5073893;28;20858;-82
2021/01/23 09:40:45;;;;;;;47.50;24.87;;;;;;;9.71;69.26;94318.09;5093099;28;20442;-81
2021/01/23 09:43:11;;;;;;;37.33;23.20;;;;;;;9.80;68.98;94339.03;5092859;28;20922;-80
2021/01/23 09:45:38;;;;;;;35.97;25.00;;;;;;;9.85;68.67;94336.84;5092907;28;21194;-82
2021/01/23 09:48:05;;;;;;;42.50;21.33;;;;;;;9.93;68.45;94323.06;5092822;28;20904;-80
2021/01/23 09:50:31;;;;;;;32.80;19.40;;;;;;;9.90;67.69;94316.28;5092959;28;20466;-81
2021/01/23 09:52:58;;;;;;;37.27;20.97;;;;;;;9.96;68.77;94300.97;5093048;28;20443;-81
2021/01/23 09:55:25;;;;;;;40.10;21.00;;;;;;;9.90;69.12;94315.47;5040303;28;20430;-80
2021/01/23 09:57:52;;;;;;;46.43;25.23;;;;;;;9.92;68.14;94308.28;5073812;28;20491;-82
2021/01/23 10:00:19;;;;;;;54.40;27.87;;;;;;;9.92;68.42;94303.88;5092713;28;20506;-82
2021/01/23 10:02:45;;;;;;;42.53;28.73;;;;;;;9.81;68.67;94314.50;5092686;28;20451;-82
2021/01/23 10:05:13;;;;;;;44.77;25.73;;;;;;;9.89;69.00;94283.19;5092792;28;20507;-81
2021/01/23 10:07:39;;;;;;;43.47;27.33;;;;;;;9.89;68.54;94303.34;5073650;28;20488;-81
2021/01/23 10:10:09;;;;;;;48.10;28.10;;;;;;;9.94;68.29;94307.19;5092072;28;20441;-81
2021/01/23 10:12:35;;;;;;;55.23;30.30;;;;;;;9.96;68.49;94293.09;5092186;28;20442;-80
2021/01/23 10:15:02;;;;;;;47.77;30.00;;;;;;;9.91;69.06;94286.50;5091956;28;20482;-79
2021/01/23 10:17:29;;;;;;;48.00;31.17;;;;;;;9.93;68.97;94279.31;5091904;28;20931;-81
2021/01/23 10:19:55;;;;;;;54.37;33.17;;;;;;;10.06;69.62;94286.03;5092386;28;20522;-80
2021/01/23 10:22:21;;;;;;;73.87;35.20;;;;;;;10.06;69.50;94272.94;5093028;28;20486;-83
2021/01/23 10:24:48;;;;;;;64.53;36.43;;;;;;;10.03;68.70;94278.47;5095973;28;20830;-80
2021/01/23 10:27:15;;;;;;;69.47;34.57;;;;;;;10.13;68.77;94279.28;5095770;28;20479;-82
2021/01/23 10:29:41;;;;;;;89.23;42.00;;;;;;;10.18;68.93;94256.91;5095675;28;20919;-81
2021/01/23 10:32:08;;;;;;;64.53;36.20;;;;;;;10.17;69.66;94252.63;5060260;28;20449;-80
2021/01/23 10:34:34;;;;;;;51.83;30.57;;;;;;;10.22;69.12;94237.31;5095878;28;20501;-82
2021/01/23 10:37:00;;;;;;;38.40;22.10;;;;;;;10.15;68.62;94230.97;5095799;28;20449;-81
2021/01/23 10:39:27;;;;;;;47.70;21.10;;;;;;;10.19;69.30;94240.22;5095569;28;20441;-82
2021/01/23 10:41:53;;;;;;;34.33;21.80;;;;;;;10.14;69.16;94213.59;5095436;28;20493;-81
2021/01/23 10:44:21;;;;;;;42.80;24.77;;;;;;;10.09;69.21;94204.50;5095583;28;20451;-82
2021/01/23 10:46:47;;;;;;;41.97;26.07;;;;;;;10.02;69.83;94214.72;5095753;28;20479;-83
2021/01/23 10:49:14;;;;;;;47.23;24.60;;;;;;;10.09;70.32;94212.34;5095632;28;20444;-81
2021/01/23 10:51:40;;;;;;;49.50;26.57;;;;;;;10.01;70.47;94214.88;5095603;28;20466;-81
2021/01/23 10:54:06;;;;;;;45.10;26.73;;;;;;;9.84;71.34;94191.09;5095269;28;20503;-81
2021/01/23 10:56:33;;;;;;;67.13;35.57;;;;;;;9.73;72.53;94204.34;5095336;28;20457;-82
2021/01/23 10:59:01;;;;;;;65.90;36.27;;;;;;;9.70;72.66;94194.16;5095337;28;20444;-81
2021/01/23 11:01:29;;;;;;;69.00;35.87;;;;;;;9.77;72.11;94204.88;5095232;28;20966;-81
2021/01/23 11:03:56;;;;;;;61.53;35.60;;;;;;;9.83;72.80;94191.19;5102893;28;20446;-81
2021/01/23 11:06:23;;;;;;;64.70;34.47;;;;;;;9.87;71.82;94185.56;5108555;28;20488;-80
2021/01/23 11:08:49;;;;;;;62.03;31.17;;;;;;;9.79;72.15;94167.09;5095231;28;20436;-81
2021/01/23 11:11:15;;;;;;;74.70;38.50;;;;;;;9.69;72.38;94155.81;5095298;28;20452;-81
2021/01/23 11:13:42;;;;;;;63.63;33.60;;;;;;;9.76;72.57;94162.13;5095948;28;20549;-81
2021/01/23 11:16:09;;;;;;;73.37;35.63;;;;;;;9.81;72.52;94149.41;5095198;28;20443;-81
2021/01/23 11:18:37;;;;;;;63.30;30.53;;;;;;;9.81;72.74;94143.34;5095303;28;20454;-82
2021/01/23 11:21:03;;;;;;;56.63;31.00;;;;;;;9.91;72.41;94145.00;5095019;28;20449;-81
2021/01/23 11:23:29;;;;;;;63.53;34.57;;;;;;;9.96;72.10;94135.88;5095056;28;20951;-81
2021/01/23 11:25:56;;;;;;;66.90;40.70;;;;;;;9.98;71.79;94147.84;5094956;28;20867;-81
2021/01/23 11:28:22;;;;;;;70.07;41.13;;;;;;;10.05;71.33;94140.22;5094604;28;20450;-81
2021/01/23 11:30:49;;;;;;;60.70;38.03;;;;;;;10.13;71.56;94133.31;5059389;28;20442;-81
2021/01/23 11:33:16;;;;;;;63.87;37.57;;;;;;;10.09;71.29;94131.91;5075317;28;21028;-82